This is the latest recevied weather packets stored in our database for station/object KD7JB. If no packets are shown the sender has not sent any weather packets the latest 1 day(s).
| Time | Temp. | Humidity | Pressure | Rain* | Wind** | Luminosity | Snow |
|---|---|---|---|---|---|---|---|
| 1777991468 | 13.89° C | 51% | 1174.9 hPa | 0 mm | 1.79 m/s, 103° | 165 W/m² | - |
| 1777991165 | 13.89° C | 51% | 1174.9 hPa | 0 mm | 1.34 m/s, 116° | 152 W/m² | - |
| 1777990862 | 14.44° C | 51% | 1174.7 hPa | 0 mm | 0.89 m/s, 147° | 38 W/m² | - |
| 1777990559 | 13.89° C | 51% | 1174.7 hPa | 0 mm | 0.45 m/s, 82° | 125 W/m² | - |
| 1777990256 | 14.44° C | 51% | 1174.6 hPa | 0 mm | 0.45 m/s, 67° | 113 W/m² | - |
| 1777989953 | 14.44° C | 51% | 1174.6 hPa | 0 mm | 0 m/s | 35 W/m² | - |
| 1777989650 | 14.44° C | 50% | 1174.6 hPa | 0 mm | 0.45 m/s, 80° | 90 W/m² | - |
| 1777989346 | 14.44° C | 51% | 1174.5 hPa | 0 mm | 0 m/s | 80 W/m² | - |
| 1777989042 | 15° C | 50% | 1174.5 hPa | 0 mm | 0 m/s | 41 W/m² | - |
| 1777988738 | 14.44° C | 50% | 1174.4 hPa | 0 mm | 0 m/s | 31 W/m² | - |
| 1777988436 | 14.44° C | 50% | 1174.4 hPa | 0 mm | 0 m/s | 29 W/m² | - |
| 1777988132 | 13.89° C | 53% | 1174.4 hPa | 0 mm | 0 m/s | 43 W/m² | - |
| 1777987832 | 13.89° C | 52% | 1174.4 hPa | 0 mm | 0 m/s | 36 W/m² | - |
| 1777987525 | 13.33° C | 52% | 1174.3 hPa | 0 mm | 0.45 m/s, 52° | 29 W/m² | - |
| 1777987223 | 13.33° C | 52% | 1174 hPa | 0 mm | 0.45 m/s, 58° | 25 W/m² | - |
| 1777986919 | 13.33° C | 52% | 1174 hPa | 0 mm | 0 m/s | 22 W/m² | - |
| 1777986618 | 13.33° C | 52% | 1174 hPa | 0 mm | 0.45 m/s, 38° | 19 W/m² | - |
| 1777986315 | 12.78° C | 53% | 1174 hPa | 0 mm | 0.45 m/s, 41° | 16 W/m² | - |
| 1777986014 | 12.78° C | 53% | 1173.9 hPa | 0 mm | 0.89 m/s, 54° | 13 W/m² | - |
| 1777985710 | 12.78° C | 54% | 1173.9 hPa | 0 mm | 0.89 m/s, 33° | 11 W/m² | - |
| 1777985407 | 12.78° C | 54% | 1174 hPa | 0 mm | 0.45 m/s, 48° | 8 W/m² | - |
| 1777985103 | 12.78° C | 55% | 1174 hPa | 0 mm | 0.45 m/s, 35° | 6 W/m² | - |
| 1777984799 | 12.78° C | 55% | 1173.8 hPa | 0 mm | 0 m/s | 4 W/m² | - |
| 1777984496 | 12.78° C | 55% | 1174 hPa | 0 mm | 0 m/s | 2 W/m² | - |
| 1777984192 | 12.78° C | 55% | 1173.9 hPa | 0 mm | 0 m/s | 1 W/m² | - |
* Rain latest hour (hover to see other rain measurements)
** Current wind speed in m/s (hover to see current wind gust speed)